Aeroporto :
LOGIN :

Iscrizione | Disclaimer

   EN    FR    IT 

 










Sommario :    VFR   VFR Marginale   IFR   IFR Intensivo   IFR Molto Intensivo
Visibilità : 
Base nubi : 
>= 8 km
>= 3000ft
5 / 8 km
1000 / 3000 ft
1500m / 5 km
500 / 1000 ft
800 / 1500m
200 / 500 ft
< 800m
< 200 ft
Simboli :   Temporali  Nebbia  Neve Forte  Precipitazioni Forti  Vento > 20 kt
SIGMETs :   Varie  Temporali  Ghiacco  Turbolenza  Onda orograficha  Ceneri Vulcaniche






- Altitudine del aeroporto : 464 ft
- Codice IATA : EVX


LFOE - Evreux

ULTIMO METAR :
  • 281230Z AUTO 01009KT 320V050 7000 NSC 15/05 Q1020

METARs OBSOLETI :
  • 281200Z AUTO 36008KT 320V040 7000 NSC 14/06 Q1020
  • 281130Z AUTO 36006KT 320V040 7000 NSC 13/06 Q1021
  • 281100Z AUTO 36006KT 320V030 7000 NSC 12/05 Q1021
  • 281030Z AUTO 01007KT 330V050 7000 NSC 11/05 Q1021
  • 281000Z AUTO 01008KT 7000 NSC 10/04 Q1021

TAF TAF LFOE
Valido dal 28 a 03 ore il 29 a 03 ore UTC


280200Z 2803/2903 33004KT 4000 BR NSC
TEMPO 2804/2807 2000 BR OVC002
PROB40
TEMPO 2805/2807 0800 FG VV///
BECMG 2807/2809 9999 NSW SCT009
BECMG 2818/2820 03015G25KT
TEMPO 2821/2903 03020G30KT



MetMap, La meteo Aeronautica in un colpo d'occhio ! - Copyright ORBIFLY Dicembre 2007 - Disclaimer

ORBIFLY MET'MAP TEAM :

Programmazione e sviluppo : Alexandra Zaïnal
Concezione : Baudouin d'Aumeries
Aiuto per la programmazione : Marc-Olivier Méhu
Supporto tecnico e logistico : Manuel Goepfert
Aiuto per la traduzione : Arnaldo La Scala

Contatto : metmap@orbifly.com




FONTI E CREDITI :

   NOAA